createdAt,value
2022-09-01T00:00:49.362Z,6
2022-09-01T00:01:50.224Z,8
2022-09-01T00:02:51.302Z,8
2022-09-01T00:03:52.381Z,8
2022-09-01T00:04:53.231Z,8
2022-09-01T00:05:54.470Z,8
2022-09-01T00:06:56.232Z,8
2022-09-01T00:07:57.240Z,8
2022-09-01T00:08:58.247Z,9
2022-09-01T00:09:59.242Z,8
2022-09-01T00:11:00.276Z,9
2022-09-01T00:12:01.284Z,8
2022-09-01T00:13:02.463Z,8
2022-09-01T00:14:04.240Z,8
2022-09-01T00:15:05.263Z,8
2022-09-01T00:16:06.375Z,6
2022-09-01T00:17:08.261Z,6
2022-09-01T00:18:09.457Z,6
2022-09-01T00:19:11.270Z,6
2022-09-01T00:20:14.124Z,6
2022-09-01T00:21:13.278Z,6
2022-09-01T00:22:14.298Z,6
2022-09-01T00:23:15.259Z,6
2022-09-01T00:24:16.265Z,8
2022-09-01T00:25:17.261Z,8
2022-09-01T00:26:18.287Z,8
2022-09-01T00:27:19.278Z,8
2022-09-01T00:28:20.449Z,8
2022-09-01T00:29:21.291Z,8
2022-09-01T00:30:22.358Z,8
2022-09-01T00:31:23.354Z,9
2022-09-01T00:32:24.271Z,9
2022-09-01T00:33:25.278Z,8
2022-09-01T00:34:26.305Z,8
2022-09-01T00:35:27.281Z,8
2022-09-01T00:36:28.276Z,8
2022-09-01T00:37:29.311Z,8
2022-09-01T00:38:30.315Z,8
2022-09-01T00:39:31.280Z,8
2022-09-01T00:40:33.423Z,8
2022-09-01T00:41:34.303Z,8
2022-09-01T00:42:35.716Z,8
2022-09-01T00:43:37.602Z,8
2022-09-01T00:44:39.455Z,8
2022-09-01T00:45:41.481Z,8
2022-09-01T00:46:49.523Z,9
2022-09-01T00:47:45.428Z,8
2022-09-01T00:48:47.434Z,9
2022-09-01T00:49:49.460Z,8
2022-09-01T00:50:51.509Z,8
2022-09-01T00:51:53.475Z,8
2022-09-01T00:52:55.465Z,8
2022-09-01T00:53:57.550Z,8
2022-09-01T00:54:59.509Z,6
2022-09-01T00:56:01.466Z,8
2022-09-01T00:57:03.504Z,8
2022-09-01T00:58:05.441Z,8
2022-09-01T00:59:07.806Z,9
2022-09-01T01:00:09.492Z,8
2022-09-01T01:01:11.611Z,6
2022-09-01T01:02:13.611Z,8
2022-09-01T01:03:15.500Z,8
2022-09-01T01:04:17.501Z,8
2022-09-01T01:05:19.523Z,8
2022-09-01T01:06:21.586Z,8
2022-09-01T01:07:23.514Z,8
2022-09-01T01:08:25.615Z,8
2022-09-01T01:09:27.465Z,8
2022-09-01T01:10:29.702Z,8
2022-09-01T01:11:31.790Z,9
2022-09-01T01:12:33.395Z,8
2022-09-01T01:13:35.531Z,8
2022-09-01T01:14:37.424Z,8
2022-09-01T01:15:39.451Z,8
2022-09-01T01:16:41.602Z,8
2022-09-01T01:17:43.470Z,6
2022-09-01T01:18:45.518Z,8
2022-09-01T01:19:47.366Z,8
2022-09-01T01:20:48.365Z,8
2022-09-01T01:21:49.351Z,8
2022-09-01T01:22:50.369Z,8
2022-09-01T01:23:51.377Z,8
2022-09-01T01:24:52.361Z,9
2022-09-01T01:25:53.384Z,8
2022-09-01T01:26:54.361Z,8
2022-09-01T01:27:55.370Z,6
2022-09-01T01:28:57.542Z,5
2022-09-01T01:29:59.422Z,5
2022-09-01T01:31:00.428Z,6
2022-09-01T01:32:01.396Z,6
2022-09-01T01:33:02.365Z,6
2022-09-01T01:34:03.370Z,6
2022-09-01T01:35:04.425Z,8
2022-09-01T01:36:05.386Z,8
2022-09-01T01:37:06.379Z,8
2022-09-01T01:38:07.365Z,6
2022-09-01T01:39:08.380Z,6
2022-09-01T01:40:09.471Z,6
2022-09-01T01:41:10.382Z,6
2022-09-01T01:42:11.414Z,6
2022-09-01T01:43:12.411Z,6
2022-09-01T01:44:13.384Z,6
2022-09-01T01:45:14.400Z,6
2022-09-01T01:46:15.520Z,6
2022-09-01T01:47:16.447Z,6
2022-09-01T01:48:17.387Z,5
2022-09-01T01:49:18.386Z,5
2022-09-01T01:50:19.392Z,5
2022-09-01T01:51:20.397Z,5
2022-09-01T01:52:21.426Z,6
2022-09-01T01:53:22.408Z,8
2022-09-01T01:54:23.422Z,8
2022-09-01T01:55:24.404Z,6
2022-09-01T01:56:25.402Z,6
2022-09-01T01:57:26.428Z,6
2022-09-01T01:58:27.403Z,6
2022-09-01T01:59:28.414Z,6
2022-09-01T02:00:30.306Z,6
2022-09-01T02:01:30.487Z,6
2022-09-01T02:02:31.467Z,5
2022-09-01T02:03:32.471Z,6
2022-09-01T02:04:33.436Z,6
2022-09-01T02:05:34.419Z,6
2022-09-01T02:06:35.414Z,6
2022-09-01T02:07:36.419Z,5
2022-09-01T02:08:37.445Z,5
2022-09-01T02:09:38.412Z,5
2022-09-01T02:10:39.428Z,6
2022-09-01T02:11:40.424Z,5
2022-09-01T02:12:41.457Z,5
2022-09-01T02:13:42.507Z,5
2022-09-01T02:14:43.436Z,5
2022-09-01T02:15:44.448Z,5
2022-09-01T02:16:45.490Z,5
2022-09-01T02:17:46.454Z,5
2022-09-01T02:18:47.496Z,5
2022-09-01T02:19:48.443Z,5
2022-09-01T02:20:49.581Z,5
2022-09-01T02:21:50.455Z,4
2022-09-01T02:22:51.482Z,5
2022-09-01T02:23:52.475Z,5
2022-09-01T02:24:53.456Z,5
2022-09-01T02:26:14.915Z,5
2022-09-01T02:26:55.457Z,5
2022-09-01T02:27:56.450Z,6
2022-09-01T02:28:57.485Z,6
2022-09-01T02:29:58.475Z,6
2022-09-01T02:30:59.527Z,6
2022-09-01T02:32:00.448Z,6
2022-09-01T02:33:01.506Z,6
2022-09-01T02:34:02.509Z,6
2022-09-01T02:35:03.456Z,6
2022-09-01T02:36:04.465Z,6
2022-09-01T02:37:05.475Z,6
2022-09-01T02:38:06.456Z,6
2022-09-01T02:39:08.095Z,6
2022-09-01T02:40:08.547Z,7
2022-09-01T02:41:09.527Z,6
2022-09-01T02:42:10.476Z,6
2022-09-01T02:43:11.481Z,6
2022-09-01T02:44:12.466Z,6
2022-09-01T02:45:13.485Z,6
2022-09-01T02:46:14.569Z,6
2022-09-01T02:47:15.491Z,6
2022-09-01T02:48:16.570Z,6
2022-09-01T02:49:17.521Z,6
2022-09-01T02:50:18.524Z,7
2022-09-01T02:51:19.501Z,6
2022-09-01T02:52:20.497Z,6
2022-09-01T02:53:21.522Z,6
2022-09-01T02:54:22.563Z,6
2022-09-01T02:55:23.486Z,6
2022-09-01T02:56:24.984Z,5
2022-09-01T02:57:25.508Z,6
2022-09-01T02:58:26.723Z,6
2022-09-01T02:59:28.814Z,6
2022-09-01T03:00:30.685Z,5
2022-09-01T03:01:32.907Z,5
2022-09-01T03:02:34.712Z,5
2022-09-01T03:03:36.680Z,5
2022-09-01T03:04:38.961Z,5
2022-09-01T03:05:40.833Z,6
2022-09-01T03:06:42.736Z,6
2022-09-01T03:07:44.803Z,6
2022-09-01T03:08:47.683Z,6
2022-09-01T03:09:49.666Z,5
2022-09-01T03:10:51.753Z,5
2022-09-01T03:11:53.790Z,5
2022-09-01T03:12:55.695Z,5
2022-09-01T03:13:57.736Z,5
2022-09-01T03:14:59.786Z,5
2022-09-01T03:16:01.692Z,5
2022-09-01T03:17:03.732Z,5
2022-09-01T03:18:05.540Z,6
2022-09-01T03:19:07.017Z,6
2022-09-01T03:20:08.839Z,5
2022-09-01T03:21:10.708Z,5
2022-09-01T03:22:12.761Z,5
2022-09-01T03:23:14.701Z,6
2022-09-01T03:24:16.788Z,6
2022-09-01T03:25:18.770Z,6
2022-09-01T03:26:20.798Z,6
2022-09-01T03:27:22.864Z,6
2022-09-01T03:28:24.631Z,6
2022-09-01T03:29:25.748Z,6
2022-09-01T03:30:27.677Z,6
2022-09-01T03:31:31.084Z,6
2022-09-01T03:32:31.669Z,6
2022-09-01T03:33:33.673Z,5
2022-09-01T03:34:35.645Z,5
2022-09-01T03:35:37.894Z,6
2022-09-01T03:36:39.879Z,6
2022-09-01T03:37:42.092Z,6
2022-09-01T03:38:43.568Z,6
2022-09-01T03:39:44.602Z,6
2022-09-01T03:40:45.635Z,8
2022-09-01T03:41:46.618Z,8
2022-09-01T03:42:47.562Z,8
2022-09-01T03:43:48.716Z,8
2022-09-01T03:44:49.581Z,8
2022-09-01T03:45:50.618Z,8
2022-09-01T03:46:51.605Z,8
2022-09-01T03:47:52.571Z,8
2022-09-01T03:48:53.572Z,6
2022-09-01T03:49:54.587Z,6
2022-09-01T03:50:55.618Z,8
2022-09-01T03:51:56.615Z,8
2022-09-01T03:52:58.744Z,8
2022-09-01T03:54:00.626Z,8
2022-09-01T03:55:01.639Z,8
2022-09-01T03:56:02.589Z,8
2022-09-01T03:57:03.774Z,8
2022-09-01T03:58:05.606Z,8
2022-09-01T03:59:07.619Z,8
2022-09-01T04:00:07.653Z,8
2022-09-01T04:01:09.566Z,6
2022-09-01T04:02:10.710Z,6
2022-09-01T04:03:11.618Z,6
2022-09-01T04:04:12.628Z,6
2022-09-01T04:05:13.610Z,6
2022-09-01T04:06:14.610Z,6
2022-09-01T04:07:19.026Z,8
2022-09-01T04:08:16.633Z,8
2022-09-01T04:09:17.634Z,6
2022-09-01T04:10:18.613Z,6
2022-09-01T04:11:19.621Z,6
2022-09-01T04:12:20.629Z,6
2022-09-01T04:13:21.665Z,6
2022-09-01T04:14:22.651Z,6
2022-09-01T04:15:23.643Z,8
2022-09-01T04:16:24.698Z,6
2022-09-01T04:17:29.976Z,8
2022-09-01T04:18:26.651Z,8
2022-09-01T04:19:27.654Z,6
2022-09-01T04:20:28.628Z,8
2022-09-01T04:21:29.658Z,8
2022-09-01T04:22:30.632Z,6
2022-09-01T04:23:31.662Z,6
2022-09-01T04:24:32.659Z,6
2022-09-01T04:25:33.649Z,6
2022-09-01T04:26:34.644Z,6
2022-09-01T04:27:35.714Z,6
2022-09-01T04:28:36.646Z,6
2022-09-01T04:29:37.700Z,6
2022-09-01T04:30:38.682Z,6
2022-09-01T04:31:39.668Z,6
2022-09-01T04:32:40.671Z,6
2022-09-01T04:33:41.648Z,6
2022-09-01T04:34:42.678Z,6
2022-09-01T04:35:43.651Z,6
2022-09-01T04:36:44.663Z,6
2022-09-01T04:37:45.671Z,8
2022-09-01T04:38:46.660Z,6
2022-09-01T04:39:48.405Z,6
2022-09-01T04:40:48.735Z,6
2022-09-01T04:41:49.679Z,8
2022-09-01T04:42:50.691Z,9
2022-09-01T04:43:51.675Z,8
2022-09-01T04:44:52.696Z,9
2022-09-01T04:45:53.848Z,8
2022-09-01T04:46:54.681Z,8
2022-09-01T04:47:55.697Z,8
2022-09-01T04:48:56.673Z,8
2022-09-01T04:49:57.703Z,8
2022-09-01T04:50:58.704Z,8
2022-09-01T04:51:59.703Z,9
2022-09-01T04:53:00.683Z,8
2022-09-01T04:54:01.837Z,8
2022-09-01T04:55:03.728Z,8
2022-09-01T04:56:04.707Z,6
2022-09-01T04:57:05.753Z,6
2022-09-01T04:58:10.014Z,8
2022-09-01T04:59:07.732Z,8
2022-09-01T05:00:08.706Z,8
2022-09-01T05:01:09.718Z,8
2022-09-01T05:02:10.970Z,8
2022-09-01T05:03:12.702Z,8
2022-09-01T05:04:13.698Z,8
2022-09-01T05:05:14.711Z,8
2022-09-01T05:06:15.708Z,8
2022-09-01T05:07:16.757Z,8
2022-09-01T05:08:18.134Z,6
2022-09-01T05:09:18.714Z,6
2022-09-01T05:10:19.703Z,6
2022-09-01T05:11:20.731Z,6
2022-09-01T05:12:21.766Z,6
2022-09-01T05:13:22.711Z,6
2022-09-01T05:14:23.778Z,6
2022-09-01T05:15:24.730Z,6
2022-09-01T05:16:25.882Z,8
2022-09-01T05:17:26.723Z,8
2022-09-01T05:18:27.716Z,8
2022-09-01T05:19:28.771Z,8
2022-09-01T05:20:29.722Z,9
2022-09-01T05:21:30.718Z,8
2022-09-01T05:22:31.732Z,9
2022-09-01T05:23:32.758Z,10
2022-09-01T05:24:34.039Z,9
2022-09-01T05:25:34.736Z,9
2022-09-01T05:26:35.800Z,9
2022-09-01T05:27:36.773Z,9
2022-09-01T05:28:37.758Z,10
2022-09-01T05:29:38.748Z,10
2022-09-01T05:30:39.751Z,9
2022-09-01T05:31:40.803Z,9
2022-09-01T05:32:41.750Z,9
2022-09-01T05:33:42.770Z,10
2022-09-01T05:34:43.795Z,10
2022-09-01T05:35:45.744Z,9
2022-09-01T05:36:46.752Z,10
2022-09-01T05:37:47.749Z,10
2022-09-01T05:38:48.789Z,12
2022-09-01T05:39:49.958Z,14
2022-09-01T05:40:51.807Z,14
2022-09-01T05:41:52.764Z,14
2022-09-01T05:42:53.778Z,16
2022-09-01T05:43:59.568Z,18
2022-09-01T05:44:55.788Z,17
2022-09-01T05:46:06.404Z,18
2022-09-01T05:46:57.810Z,18
2022-09-01T05:47:58.761Z,19
2022-09-01T05:48:59.805Z,17
2022-09-01T05:50:00.783Z,13
2022-09-01T05:51:01.798Z,10
2022-09-01T05:52:02.784Z,9
2022-09-01T05:53:03.809Z,6
2022-09-01T05:54:04.790Z,4
2022-09-01T05:55:05.798Z,2
2022-09-01T05:56:06.819Z,2
2022-09-01T05:57:23.691Z,3
2022-09-01T05:58:08.782Z,3
2022-09-01T05:59:25.976Z,3
2022-09-01T06:00:11.058Z,4
2022-09-01T06:01:11.802Z,8
2022-09-01T06:02:13.259Z,8
2022-09-01T06:03:14.971Z,8
2022-09-01T06:04:15.785Z,8
2022-09-01T06:05:16.814Z,9
2022-09-01T06:06:17.809Z,9
2022-09-01T06:07:25.192Z,9
2022-09-01T06:08:19.832Z,6
2022-09-01T06:09:20.832Z,8
2022-09-01T06:10:21.872Z,8
2022-09-01T06:11:22.811Z,8
2022-09-01T06:12:23.836Z,8
2022-09-01T06:13:25.755Z,8
2022-09-01T06:14:25.851Z,8
2022-09-01T06:15:26.846Z,8
2022-09-01T06:16:27.907Z,8
2022-09-01T06:17:28.812Z,8
2022-09-01T06:18:29.814Z,8
2022-09-01T06:19:34.885Z,8
2022-09-01T06:20:31.841Z,8
2022-09-01T06:21:32.827Z,8
2022-09-01T06:22:33.863Z,8
2022-09-01T06:23:34.829Z,8
2022-09-01T06:24:35.867Z,10
2022-09-01T06:25:36.833Z,8
2022-09-01T06:26:37.851Z,8
2022-09-01T06:27:38.948Z,10
2022-09-01T06:28:39.885Z,10
2022-09-01T06:29:40.879Z,11
2022-09-01T06:30:41.873Z,13
2022-09-01T06:31:42.910Z,12
2022-09-01T06:32:43.882Z,11
2022-09-01T06:33:44.875Z,10
2022-09-01T06:34:45.879Z,11
2022-09-01T06:35:46.868Z,11
2022-09-01T06:36:47.838Z,11
2022-09-01T06:37:50.476Z,11
2022-09-01T06:38:54.327Z,14
2022-09-01T06:39:55.926Z,18
2022-09-01T06:40:56.927Z,20
2022-09-01T06:41:57.857Z,19
2022-09-01T06:42:58.846Z,17
2022-09-01T06:43:59.863Z,14
2022-09-01T06:45:00.859Z,16
2022-09-01T06:46:02.210Z,17
2022-09-01T06:47:03.936Z,16
2022-09-01T06:48:05.932Z,14
2022-09-01T06:49:07.865Z,16
2022-09-01T06:50:08.870Z,17
2022-09-01T06:51:20.054Z,14
2022-09-01T06:52:10.871Z,14
2022-09-01T06:55:13.907Z,17
2022-09-01T06:56:14.876Z,14
2022-09-01T06:58:16.935Z,14
2022-09-01T06:59:17.892Z,14
2022-09-01T07:00:19.036Z,13
2022-09-01T07:01:20.339Z,14
2022-09-01T07:02:26.690Z,19
2022-09-01T07:03:23.902Z,21
2022-09-01T07:04:25.294Z,21
2022-09-01T07:08:28.921Z,25
2022-09-01T07:09:32.186Z,24
2022-09-01T07:10:30.933Z,24
2022-09-01T07:12:34.249Z,13
2022-09-01T07:13:34.321Z,11
2022-09-01T07:16:30.054Z,12
2022-09-01T07:16:41.804Z,16
2022-09-01T07:17:38.920Z,16
2022-09-01T07:18:39.943Z,19
2022-09-01T07:19:48.756Z,19
2022-09-01T07:21:02.663Z,21
2022-09-01T07:22:06.618Z,23
2022-09-01T07:24:05.998Z,23
2022-09-01T07:24:45.957Z,23
2022-09-01T07:26:02.162Z,24
2022-09-01T07:26:47.950Z,25
2022-09-01T07:27:49.000Z,25
2022-09-01T07:28:49.973Z,23
2022-09-01T07:29:50.939Z,25
2022-09-01T07:30:51.960Z,25
2022-09-01T07:32:43.909Z,25
2022-09-01T07:32:54.112Z,26
2022-09-01T07:33:55.443Z,26
2022-09-01T07:34:56.025Z,26
2022-09-01T07:39:57.749Z,18
2022-09-01T07:44:04.967Z,24
2022-09-01T07:47:52.244Z,21
2022-09-01T07:48:09.007Z,21
2022-09-01T07:50:24.966Z,21
2022-09-01T07:51:41.642Z,24
2022-09-01T07:52:13.008Z,24
2022-09-01T07:53:13.995Z,24
2022-09-01T07:54:15.064Z,24
2022-09-01T07:55:16.015Z,24
2022-09-01T07:56:16.992Z,21
2022-09-01T07:57:17.997Z,23
2022-09-01T07:58:19.001Z,24
2022-09-01T07:59:20.026Z,21
2022-09-01T08:00:20.999Z,21
2022-09-01T08:01:22.078Z,18
2022-09-01T08:02:23.056Z,18
2022-09-01T08:03:24.225Z,20
2022-09-01T08:04:25.017Z,20
2022-09-01T08:05:26.050Z,21
2022-09-01T08:06:27.199Z,21
2022-09-01T08:07:28.011Z,23
2022-09-01T08:08:29.608Z,23
2022-09-01T08:09:37.930Z,21
2022-09-01T08:10:31.018Z,23
2022-09-01T08:11:58.540Z,23
2022-09-01T08:12:33.025Z,23
2022-09-01T08:13:37.254Z,25
2022-09-01T08:14:35.013Z,25
2022-09-01T08:15:40.865Z,25
2022-09-01T08:16:51.588Z,25
2022-09-01T08:17:53.475Z,24
2022-09-01T08:18:54.059Z,23
2022-09-01T08:19:40.030Z,18
2022-09-01T08:20:42.072Z,18
2022-09-01T08:21:43.035Z,20
2022-09-01T08:22:44.046Z,20
2022-09-01T08:23:45.103Z,18
2022-09-01T08:24:46.025Z,21
2022-09-01T08:25:47.052Z,21
2022-09-01T08:26:48.071Z,23
2022-09-01T08:27:49.092Z,21
2022-09-01T08:28:54.850Z,18
2022-09-01T08:29:51.100Z,14
2022-09-01T08:30:52.741Z,12
2022-09-01T08:31:53.095Z,11
2022-09-01T08:32:54.099Z,13
2022-09-01T08:33:55.093Z,14
2022-09-01T08:34:56.074Z,14
2022-09-01T08:35:57.067Z,12
2022-09-01T08:36:58.074Z,11
2022-09-01T08:37:59.123Z,12
2022-09-01T08:39:00.102Z,13
2022-09-01T08:40:01.129Z,13
2022-09-01T08:41:02.190Z,13
2022-09-01T08:42:03.118Z,14
2022-09-01T08:43:04.115Z,18
2022-09-01T08:44:05.073Z,17
2022-09-01T08:45:06.571Z,17
2022-09-01T08:46:08.165Z,18
2022-09-01T08:47:09.089Z,20
2022-09-01T08:49:27.286Z,21
2022-09-01T08:50:12.151Z,21
2022-09-01T08:51:19.939Z,20
2022-09-01T08:52:17.114Z,21
2022-09-01T08:53:18.130Z,23
2022-09-01T08:54:22.626Z,24
2022-09-01T08:55:20.115Z,24
2022-09-01T08:56:21.109Z,24
2022-09-01T08:57:22.154Z,23
2022-09-01T08:58:23.290Z,19
2022-09-01T08:59:24.248Z,17
2022-09-01T09:00:25.119Z,19
2022-09-01T09:01:26.186Z,20
2022-09-01T09:02:27.147Z,22
2022-09-01T09:03:40.356Z,22
2022-09-01T09:04:29.139Z,18
2022-09-01T09:05:30.473Z,19
2022-09-01T09:06:32.124Z,16
2022-09-01T09:07:33.128Z,18
2022-09-01T09:08:34.127Z,18
2022-09-01T09:09:35.138Z,19
2022-09-01T09:10:36.156Z,21
2022-09-01T09:11:37.211Z,24
2022-09-01T09:12:48.845Z,24
2022-09-01T09:13:39.133Z,24
2022-09-01T09:14:40.129Z,24
2022-09-01T09:15:41.304Z,23
2022-09-01T09:16:42.137Z,21
2022-09-01T09:17:43.146Z,21
2022-09-01T09:18:56.956Z,23
2022-09-01T09:19:45.136Z,20
2022-09-01T09:20:46.189Z,20
2022-09-01T09:21:47.472Z,19
2022-09-01T09:22:48.208Z,17
2022-09-01T09:23:49.158Z,16
2022-09-01T09:24:50.278Z,13
2022-09-01T09:25:51.209Z,11
2022-09-01T09:26:52.196Z,9
2022-09-01T09:28:00.962Z,6
2022-09-01T09:28:54.161Z,5
2022-09-01T09:29:55.178Z,4
2022-09-01T09:30:56.422Z,8
2022-09-01T09:31:58.354Z,10
2022-09-01T09:33:59.508Z,11
2022-09-01T09:35:00.179Z,14
2022-09-01T09:36:01.223Z,18
2022-09-01T09:37:01.841Z,20
2022-09-01T09:38:03.206Z,24
2022-09-01T09:39:04.179Z,21
2022-09-01T09:40:05.253Z,20
2022-09-01T09:41:26.803Z,20
2022-09-01T09:42:07.200Z,18
2022-09-01T09:43:08.181Z,18
2022-09-01T09:44:11.337Z,19
2022-09-01T09:45:10.189Z,18
2022-09-01T09:46:23.083Z,17
2022-09-01T09:47:27.366Z,18
2022-09-01T09:48:13.186Z,19
2022-09-01T09:49:14.669Z,19
2022-09-01T09:50:15.215Z,17
2022-09-01T09:51:16.230Z,16
2022-09-01T09:52:17.244Z,14
2022-09-01T09:53:18.205Z,12
2022-09-01T09:54:19.213Z,10
2022-09-01T09:55:20.195Z,10
2022-09-01T09:56:21.231Z,10
2022-09-01T09:57:22.218Z,8
2022-09-01T09:58:23.210Z,10
2022-09-01T09:59:39.780Z,8
2022-09-01T10:00:25.892Z,5
2022-09-01T10:01:26.345Z,6
2022-09-01T10:02:27.918Z,6
2022-09-01T10:03:29.053Z,9
2022-09-01T10:04:29.296Z,11
2022-09-01T10:05:30.529Z,13
2022-09-01T10:06:31.301Z,17
2022-09-01T10:07:32.228Z,20
2022-09-01T10:08:33.276Z,19
2022-09-01T10:09:34.235Z,20
2022-09-01T10:10:35.244Z,20
2022-09-01T10:11:36.262Z,21
2022-09-01T10:12:37.240Z,18
2022-09-01T10:13:38.294Z,17
2022-09-01T10:14:54.158Z,18
2022-09-01T10:15:40.242Z,16
2022-09-01T10:16:41.301Z,16
2022-09-01T10:17:43.512Z,17
2022-09-01T10:18:43.270Z,19
2022-09-01T10:19:44.289Z,20
2022-09-01T10:20:45.255Z,18
2022-09-01T10:21:46.252Z,12
2022-09-01T10:22:48.342Z,10
2022-09-01T10:23:48.282Z,8
2022-09-01T10:24:50.227Z,6
2022-09-01T10:25:50.287Z,8
2022-09-01T10:26:51.263Z,12
2022-09-01T10:27:54.207Z,11
2022-09-01T10:28:53.282Z,9
2022-09-01T10:30:11.988Z,8
2022-09-01T10:30:55.332Z,6
2022-09-01T10:32:15.047Z,6
2022-09-01T10:33:00.526Z,4
2022-09-01T10:33:58.585Z,3
2022-09-01T10:34:59.541Z,6
2022-09-01T10:36:00.292Z,8
2022-09-01T10:37:01.310Z,10
2022-09-01T10:38:02.349Z,12
2022-09-01T10:39:06.060Z,13
2022-09-01T10:40:04.369Z,16
2022-09-01T10:41:05.480Z,17
2022-09-01T10:42:06.295Z,18
2022-09-01T10:43:12.367Z,17
2022-09-01T10:44:08.308Z,17
2022-09-01T10:45:08.833Z,18
2022-09-01T10:46:15.249Z,20
2022-09-01T10:47:14.814Z,21
2022-09-01T10:48:13.185Z,21
2022-09-01T10:49:13.309Z,19
2022-09-01T10:50:14.407Z,18
2022-09-01T10:51:19.006Z,18
2022-09-01T10:52:16.339Z,19
2022-09-01T10:53:17.437Z,19
2022-09-01T10:54:18.324Z,18
2022-09-01T10:55:24.385Z,18
2022-09-01T10:56:29.396Z,19
2022-09-01T10:57:26.753Z,21
2022-09-01T10:59:31.990Z,21
2022-09-01T11:00:39.989Z,18
2022-09-01T11:01:47.082Z,18
2022-09-01T11:02:28.322Z,14
2022-09-01T11:03:30.408Z,12
2022-09-01T11:04:28.454Z,12
2022-09-01T11:05:33.197Z,14
2022-09-01T11:06:33.116Z,14
2022-09-01T11:07:50.115Z,13
2022-09-01T11:08:32.371Z,12
2022-09-01T11:09:33.365Z,12
2022-09-01T11:10:34.688Z,13
2022-09-01T11:11:35.371Z,14
2022-09-01T11:12:36.382Z,16
2022-09-01T11:13:37.423Z,18
2022-09-01T11:14:37.723Z,18
2022-09-01T11:15:39.378Z,20
2022-09-01T11:16:48.195Z,20
2022-09-01T11:17:41.819Z,20
2022-09-01T11:18:43.360Z,21
2022-09-01T11:19:44.401Z,21
2022-09-01T11:20:45.602Z,21
2022-09-01T11:21:46.764Z,21
2022-09-01T11:22:47.399Z,20
2022-09-01T11:23:48.371Z,20
2022-09-01T11:24:53.507Z,21
2022-09-01T11:26:18.954Z,21
2022-09-01T11:26:51.375Z,20
2022-09-01T11:27:52.440Z,20
2022-09-01T11:28:53.379Z,19
2022-09-01T11:29:55.500Z,19
2022-09-01T11:30:55.582Z,18
2022-09-01T11:31:56.448Z,18
2022-09-01T11:32:57.413Z,19
2022-09-01T11:33:58.469Z,19
2022-09-01T11:34:59.395Z,20
2022-09-01T11:36:00.412Z,18
2022-09-01T11:37:01.389Z,16
2022-09-01T11:38:02.425Z,14
2022-09-01T11:39:03.399Z,14
2022-09-01T11:40:04.472Z,13
2022-09-01T11:41:05.420Z,14
2022-09-01T11:42:05.840Z,16
2022-09-01T11:43:06.811Z,19
2022-09-01T11:44:07.801Z,21
2022-09-01T11:45:09.408Z,23
2022-09-01T11:46:11.360Z,23
2022-09-01T11:47:14.463Z,20
2022-09-01T11:48:13.408Z,18
2022-09-01T11:49:14.426Z,17
2022-09-01T11:50:15.463Z,13
2022-09-01T11:51:16.448Z,11
2022-09-01T11:52:17.427Z,11
2022-09-01T11:53:18.450Z,11
2022-09-01T11:54:19.415Z,12
2022-09-01T11:55:20.441Z,13
2022-09-01T11:56:21.511Z,16
2022-09-01T11:57:22.478Z,17
2022-09-01T11:58:23.422Z,18
2022-09-01T11:59:24.425Z,19
2022-09-01T12:00:25.446Z,19
2022-09-01T12:01:25.869Z,19
2022-09-01T12:02:27.012Z,21
2022-09-01T12:03:27.905Z,21
2022-09-01T12:04:28.805Z,21
2022-09-01T12:05:30.461Z,24
2022-09-01T12:06:31.461Z,23
2022-09-01T12:07:32.470Z,19
2022-09-01T12:08:32.823Z,20
2022-09-01T12:09:34.449Z,21
2022-09-01T12:10:35.452Z,19
2022-09-01T12:11:36.510Z,16
2022-09-01T12:12:37.471Z,11
2022-09-01T12:13:38.468Z,9
2022-09-01T12:15:02.296Z,6
2022-09-01T12:15:50.385Z,6
2022-09-01T12:16:41.541Z,6
2022-09-01T12:17:42.455Z,8
2022-09-01T12:18:43.460Z,9
2022-09-01T12:19:44.459Z,11
2022-09-01T12:20:44.883Z,12
2022-09-01T12:21:46.539Z,14
2022-09-01T12:22:46.870Z,16
2022-09-01T12:23:47.886Z,18
2022-09-01T12:24:48.909Z,19
2022-09-01T12:25:49.842Z,20
2022-09-01T12:26:50.881Z,21
2022-09-01T12:27:52.499Z,23
2022-09-01T12:28:53.558Z,21
2022-09-01T12:29:54.497Z,20
2022-09-01T12:30:55.516Z,14
2022-09-01T12:31:56.519Z,11
2022-09-01T12:33:58.532Z,6
2022-09-01T12:34:59.493Z,5
2022-09-01T12:36:00.552Z,4
2022-09-01T12:37:01.564Z,4
2022-09-01T12:38:03.759Z,3
2022-09-01T12:39:03.614Z,3
2022-09-01T12:40:05.557Z,5
2022-09-01T12:41:06.505Z,4
2022-09-01T12:42:07.545Z,4
2022-09-01T12:43:08.531Z,4
2022-09-01T12:44:09.559Z,4
2022-09-01T12:45:10.522Z,4
2022-09-01T12:46:11.546Z,8
2022-09-01T12:47:12.557Z,10
2022-09-01T12:48:12.940Z,12
2022-09-01T12:50:16.924Z,13
2022-09-01T12:51:16.526Z,13
2022-09-01T12:52:19.830Z,13
2022-09-01T12:53:17.923Z,16
2022-09-01T12:54:21.184Z,19
2022-09-01T12:56:21.573Z,18
2022-09-01T12:57:22.569Z,16
2022-09-01T12:58:23.576Z,12
2022-09-01T12:59:26.326Z,12
2022-09-01T13:00:27.564Z,11
2022-09-01T13:01:28.779Z,9
2022-09-01T13:02:29.765Z,6
2022-09-01T13:03:30.538Z,6
2022-09-01T13:04:31.549Z,5
2022-09-01T13:05:37.487Z,5
2022-09-01T13:06:33.599Z,4
2022-09-01T13:07:34.600Z,5
2022-09-01T13:08:37.621Z,4
2022-09-01T13:09:37.582Z,3
2022-09-01T13:10:38.609Z,3
2022-09-01T13:12:40.586Z,4
2022-09-01T13:13:42.408Z,2
2022-09-01T13:14:42.647Z,3
2022-09-01T13:15:43.608Z,2
2022-09-01T13:16:44.595Z,2
2022-09-01T13:17:45.610Z,3
2022-09-01T13:19:48.623Z,2
2022-09-01T13:20:49.585Z,2
2022-09-01T13:21:50.607Z,3
2022-09-01T13:22:51.594Z,3
2022-09-01T13:23:52.613Z,3
2022-09-01T13:24:53.584Z,4
2022-09-01T13:25:54.576Z,4
2022-09-01T13:27:57.440Z,6
2022-09-01T13:28:58.637Z,9
2022-09-01T13:29:59.046Z,12
2022-09-01T13:32:18.597Z,16
2022-09-01T13:33:19.133Z,17
2022-09-01T13:34:21.594Z,18
2022-09-01T13:35:04.154Z,17
2022-09-01T13:36:42.216Z,19
2022-09-01T13:37:06.653Z,17
2022-09-01T13:38:07.625Z,16
2022-09-01T13:39:08.674Z,14
2022-09-01T13:40:10.283Z,13
2022-09-01T13:41:11.651Z,12
2022-09-01T13:42:12.640Z,11
2022-09-01T13:43:14.087Z,11
2022-09-01T13:44:17.056Z,9
2022-09-01T13:45:16.707Z,9
2022-09-01T13:46:17.673Z,9
2022-09-01T13:47:34.243Z,5
2022-09-01T13:48:19.669Z,4
2022-09-01T13:50:23.983Z,2
2022-09-01T13:51:23.644Z,1
2022-09-01T13:52:24.692Z,1
2022-09-01T13:53:25.700Z,1
2022-09-01T13:54:26.696Z,1
2022-09-01T13:55:27.676Z,1
2022-09-01T13:56:29.693Z,1
2022-09-01T13:57:31.577Z,1
2022-09-01T13:58:31.648Z,1
2022-09-01T13:59:32.645Z,2
2022-09-01T14:00:33.800Z,2
2022-09-01T14:01:36.215Z,2
2022-09-01T14:02:37.828Z,4
2022-09-01T14:03:40.554Z,8
2022-09-01T14:04:43.342Z,9
2022-09-01T14:05:46.582Z,10
2022-09-01T14:06:49.071Z,11
2022-09-01T14:07:50.862Z,13
2022-09-01T14:08:53.402Z,14
2022-09-01T14:09:56.132Z,16
2022-09-01T14:10:58.160Z,16
2022-09-01T14:11:59.946Z,17
2022-09-01T14:13:03.213Z,16
2022-09-01T14:14:05.114Z,14
2022-09-01T14:15:11.832Z,14
2022-09-01T14:16:08.933Z,16
2022-09-01T14:17:12.169Z,16
2022-09-01T14:18:14.004Z,17
2022-09-01T14:19:15.879Z,16
2022-09-01T14:20:17.902Z,16
2022-09-01T14:21:19.978Z,16
2022-09-01T14:22:21.831Z,12
2022-09-01T14:23:24.099Z,9
2022-09-01T14:24:25.978Z,10
2022-09-01T14:25:28.067Z,10
2022-09-01T14:26:29.932Z,9
2022-09-01T14:27:31.873Z,10
2022-09-01T14:28:33.929Z,10
2022-09-01T14:29:35.941Z,9
2022-09-01T14:30:37.853Z,8
2022-09-01T14:31:39.777Z,8
2022-09-01T14:32:40.956Z,10
2022-09-01T14:33:42.870Z,10
2022-09-01T14:34:44.881Z,12
2022-09-01T14:35:47.109Z,12
2022-09-01T14:36:49.031Z,13
2022-09-01T14:37:50.924Z,13
2022-09-01T14:38:52.983Z,13
2022-09-01T14:39:55.110Z,12
2022-09-01T14:40:56.983Z,12
2022-09-01T14:41:58.983Z,12
2022-09-01T14:43:00.951Z,13
2022-09-01T14:44:03.580Z,12
2022-09-01T14:45:06.063Z,10
2022-09-01T14:46:06.890Z,10
2022-09-01T14:47:10.173Z,10
2022-09-01T14:48:11.010Z,9
2022-09-01T14:49:13.100Z,9
2022-09-01T14:50:16.017Z,9
2022-09-01T14:51:17.264Z,10
2022-09-01T14:52:18.941Z,11
2022-09-01T14:53:20.922Z,12
2022-09-01T14:54:21.825Z,12
2022-09-01T14:55:22.751Z,8
2022-09-01T14:56:23.762Z,5
2022-09-01T14:57:29.330Z,6
2022-09-01T14:58:25.775Z,6
2022-09-01T14:59:26.776Z,8
2022-09-01T15:00:27.874Z,8
2022-09-01T15:01:34.469Z,8
2022-09-01T15:02:29.765Z,8
2022-09-01T15:03:30.799Z,8
2022-09-01T15:04:31.810Z,9
2022-09-01T15:05:34.943Z,6
2022-09-01T15:06:33.776Z,6
2022-09-01T15:07:34.818Z,6
2022-09-01T15:08:35.776Z,5
2022-09-01T15:09:36.785Z,4
2022-09-01T15:10:37.800Z,4
2022-09-01T15:11:39.735Z,5
2022-09-01T15:12:39.777Z,6
2022-09-01T15:13:40.803Z,6
2022-09-01T15:14:41.786Z,6
2022-09-01T15:15:42.792Z,8
2022-09-01T15:16:43.820Z,9
2022-09-01T15:17:46.026Z,9
2022-09-01T15:18:45.816Z,9
2022-09-01T15:19:46.793Z,8
2022-09-01T15:20:47.827Z,8